Etusivu
METAR-TAF:

METAR-TAF

Lentoasemat :

Kristiansund, Norja

Leveyspiiri: 63-07N, Pituuspiiri: 007-50E, korkeus merenpinnasta: 6 m

Tämänhetkinen sää

Tämä raportti tehtiin 39 minuuttia sitten, kello 17.50 UTC
Tuuli 4 kn idästä
Lämpötila 4°C
Kosteus 87%
Ilmanpaine 1036 hPa
Näkyvyys 10 km tai enemmän
Hajonneita pilviä 2400 ft:n korkeudessa

METAR: ENKB 191750Z 08004KT 9999 BKN024 04/02 Q1036 RMK WIND 745FT 14009KT

Aika: 19:29 (18:29 UTC)

Sääennuste

Tämä raportti tehtiin 1 tunti ja 29 minuuttia sitten, kello 17.00 UTC
Ennuste voimassa 19. päivästä klo 18 UTC - 19. päivään klo 22 UTC
Tuuli 5 kn idästä
Näkyvyys 10 km tai enemmän
Muutamia pilviä 500 ft:n korkeudessa
Hajonneita pilviä 2200 ft:n korkeudessa

TAF: ENKB 191700Z 1918/1922 09005KT 9999 FEW005 BKN022

Säähavainnot ja -ennusteet yli 4000 lentoasemalta (METAR- ja TAF-raportit).

Käytössä olevat sääasemat on merkitty karttaan keltaisilla ja punaisilla pisteillä.

Aseta hiiri pisteen päälle nähdäksesi sääaseman nimen.

Klikkaa sitten nähdäksesi säähavainnot ja -ennusteet.

Kartan vaihtaminen: klikkaa mustalla rastilla varustettuja vihreitä pisteitä, niin voit zoomata sisään; viivalla varustettua vihreää pistettä, niin voit zoomata ulos tai vihreitä nuolia, niin pääset viereisille kartoille.


METAR-TAF: